sensor_id;sensor_type;location;lat;lon;timestamp;temperature;humidity
3921;DHT22;1975;49.356;6.816;2023-05-07T00:01:17;17.30;99.90
3921;DHT22;1975;49.356;6.816;2023-05-07T00:03:42;17.30;99.90
3921;DHT22;1975;49.356;6.816;2023-05-07T00:06:08;17.30;99.90
3921;DHT22;1975;49.356;6.816;2023-05-07T00:08:34;17.30;99.90
3921;DHT22;1975;49.356;6.816;2023-05-07T00:10:59;17.30;99.90
3921;DHT22;1975;49.356;6.816;2023-05-07T00:13:25;17.20;99.90
3921;DHT22;1975;49.356;6.816;2023-05-07T00:15:50;17.20;99.90
3921;DHT22;1975;49.356;6.816;2023-05-07T00:18:16;17.20;99.90
3921;DHT22;1975;49.356;6.816;2023-05-07T00:20:41;17.20;99.90
3921;DHT22;1975;49.356;6.816;2023-05-07T00:23:06;17.20;99.90
3921;DHT22;1975;49.356;6.816;2023-05-07T00:25:32;17.20;99.90
3921;DHT22;1975;49.356;6.816;2023-05-07T00:27:57;17.10;99.90
3921;DHT22;1975;49.356;6.816;2023-05-07T00:30:27;17.10;99.90
3921;DHT22;1975;49.356;6.816;2023-05-07T00:32:53;17.10;99.90
3921;DHT22;1975;49.356;6.816;2023-05-07T00:35:18;17.10;99.90
3921;DHT22;1975;49.356;6.816;2023-05-07T00:37:44;17.10;99.90
3921;DHT22;1975;49.356;6.816;2023-05-07T00:40:09;17.10;99.90
3921;DHT22;1975;49.356;6.816;2023-05-07T00:42:35;17.00;99.90
3921;DHT22;1975;49.356;6.816;2023-05-07T00:45:01;17.00;99.90
3921;DHT22;1975;49.356;6.816;2023-05-07T00:47:26;17.00;99.90
3921;DHT22;1975;49.356;6.816;2023-05-07T00:49:52;17.00;99.90
3921;DHT22;1975;49.356;6.816;2023-05-07T00:52:17;17.00;99.90
3921;DHT22;1975;49.356;6.816;2023-05-07T00:54:44;17.00;99.90
3921;DHT22;1975;49.356;6.816;2023-05-07T00:57:10;16.90;99.90
3921;DHT22;1975;49.356;6.816;2023-05-07T00:59:38;16.90;99.90
3921;DHT22;1975;49.356;6.816;2023-05-07T01:02:04;16.90;99.90
3921;DHT22;1975;49.356;6.816;2023-05-07T01:04:30;16.90;99.90
3921;DHT22;1975;49.356;6.816;2023-05-07T01:06:56;16.90;99.90
3921;DHT22;1975;49.356;6.816;2023-05-07T01:09:22;16.90;99.90
3921;DHT22;1975;49.356;6.816;2023-05-07T01:11:49;16.90;99.90
3921;DHT22;1975;49.356;6.816;2023-05-07T01:14:15;16.90;99.90
3921;DHT22;1975;49.356;6.816;2023-05-07T01:16:41;16.80;99.90
3921;DHT22;1975;49.356;6.816;2023-05-07T01:19:07;16.80;99.90
3921;DHT22;1975;49.356;6.816;2023-05-07T01:21:33;16.80;99.90
3921;DHT22;1975;49.356;6.816;2023-05-07T01:24:00;16.80;99.90
3921;DHT22;1975;49.356;6.816;2023-05-07T01:26:25;16.80;99.90
3921;DHT22;1975;49.356;6.816;2023-05-07T01:28:51;16.80;99.90
3921;DHT22;1975;49.356;6.816;2023-05-07T01:31:16;16.70;99.90
3921;DHT22;1975;49.356;6.816;2023-05-07T01:33:42;16.70;99.90
3921;DHT22;1975;49.356;6.816;2023-05-07T01:36:09;16.70;99.90
3921;DHT22;1975;49.356;6.816;2023-05-07T01:38:36;16.70;99.90
3921;DHT22;1975;49.356;6.816;2023-05-07T01:41:02;16.70;99.90
3921;DHT22;1975;49.356;6.816;2023-05-07T01:43:28;16.60;99.90
3921;DHT22;1975;49.356;6.816;2023-05-07T01:45:54;16.70;99.90
3921;DHT22;1975;49.356;6.816;2023-05-07T01:48:19;16.60;99.90
3921;DHT22;1975;49.356;6.816;2023-05-07T01:50:45;16.60;99.90
3921;DHT22;1975;49.356;6.816;2023-05-07T01:53:11;16.60;99.90
3921;DHT22;1975;49.356;6.816;2023-05-07T01:55:36;16.60;99.90
3921;DHT22;1975;49.356;6.816;2023-05-07T01:58:02;16.60;99.90
3921;DHT22;1975;49.356;6.816;2023-05-07T02:00:28;16.60;99.90
3921;DHT22;1975;49.356;6.816;2023-05-07T02:02:54;16.50;99.90
3921;DHT22;1975;49.356;6.816;2023-05-07T02:05:19;16.50;99.90
3921;DHT22;1975;49.356;6.816;2023-05-07T02:07:45;16.50;99.90
3921;DHT22;1975;49.356;6.816;2023-05-07T02:10:10;16.50;99.90
3921;DHT22;1975;49.356;6.816;2023-05-07T02:12:36;16.50;99.90
3921;DHT22;1975;49.356;6.816;2023-05-07T02:15:01;16.50;99.90
3921;DHT22;1975;49.356;6.816;2023-05-07T02:17:28;16.40;99.90
3921;DHT22;1975;49.356;6.816;2023-05-07T02:19:57;16.40;99.90
3921;DHT22;1975;49.356;6.816;2023-05-07T02:22:22;16.40;99.90
3921;DHT22;1975;49.356;6.816;2023-05-07T02:24:48;16.40;99.90
3921;DHT22;1975;49.356;6.816;2023-05-07T02:27:13;16.40;99.90
3921;DHT22;1975;49.356;6.816;2023-05-07T02:29:38;16.30;99.90
3921;DHT22;1975;49.356;6.816;2023-05-07T02:32:04;16.40;99.90
3921;DHT22;1975;49.356;6.816;2023-05-07T02:34:30;16.40;99.90
3921;DHT22;1975;49.356;6.816;2023-05-07T02:36:55;16.30;99.90
3921;DHT22;1975;49.356;6.816;2023-05-07T02:39:21;16.30;99.90
3921;DHT22;1975;49.356;6.816;2023-05-07T02:41:46;16.30;99.90
3921;DHT22;1975;49.356;6.816;2023-05-07T02:44:12;16.30;99.90
3921;DHT22;1975;49.356;6.816;2023-05-07T02:46:37;16.30;99.90
3921;DHT22;1975;49.356;6.816;2023-05-07T02:49:03;16.30;99.90
3921;DHT22;1975;49.356;6.816;2023-05-07T02:51:29;16.20;99.90
3921;DHT22;1975;49.356;6.816;2023-05-07T02:53:55;16.20;99.90
3921;DHT22;1975;49.356;6.816;2023-05-07T02:56:21;16.20;99.90
3921;DHT22;1975;49.356;6.816;2023-05-07T02:58:46;16.20;99.90
3921;DHT22;1975;49.356;6.816;2023-05-07T03:01:11;16.20;99.90
3921;DHT22;1975;49.356;6.816;2023-05-07T03:03:39;16.20;99.90
3921;DHT22;1975;49.356;6.816;2023-05-07T03:06:04;16.20;99.90
3921;DHT22;1975;49.356;6.816;2023-05-07T03:08:30;16.10;99.90
3921;DHT22;1975;49.356;6.816;2023-05-07T03:10:56;16.20;99.90
3921;DHT22;1975;49.356;6.816;2023-05-07T03:13:21;16.10;99.90
3921;DHT22;1975;49.356;6.816;2023-05-07T03:15:47;16.10;99.90
3921;DHT22;1975;49.356;6.816;2023-05-07T03:18:12;16.10;99.90
3921;DHT22;1975;49.356;6.816;2023-05-07T03:20:37;16.10;99.90
3921;DHT22;1975;49.356;6.816;2023-05-07T03:23:03;16.00;99.90
3921;DHT22;1975;49.356;6.816;2023-05-07T03:25:29;16.00;99.90
3921;DHT22;1975;49.356;6.816;2023-05-07T03:27:57;16.10;99.90
3921;DHT22;1975;49.356;6.816;2023-05-07T03:30:22;16.00;99.90
3921;DHT22;1975;49.356;6.816;2023-05-07T03:32:48;16.00;99.90
3921;DHT22;1975;49.356;6.816;2023-05-07T03:35:13;16.00;99.90
3921;DHT22;1975;49.356;6.816;2023-05-07T03:37:39;16.00;99.90
3921;DHT22;1975;49.356;6.816;2023-05-07T03:40:05;16.00;99.90
3921;DHT22;1975;49.356;6.816;2023-05-07T03:42:31;16.00;99.90
3921;DHT22;1975;49.356;6.816;2023-05-07T03:44:56;15.90;99.90
3921;DHT22;1975;49.356;6.816;2023-05-07T03:47:22;15.90;99.90
3921;DHT22;1975;49.356;6.816;2023-05-07T03:49:47;15.90;99.90
3921;DHT22;1975;49.356;6.816;2023-05-07T03:52:14;15.90;99.90
3921;DHT22;1975;49.356;6.816;2023-05-07T03:54:40;15.90;99.90
3921;DHT22;1975;49.356;6.816;2023-05-07T03:57:05;15.90;99.90
3921;DHT22;1975;49.356;6.816;2023-05-07T03:59:30;15.90;99.90
3921;DHT22;1975;49.356;6.816;2023-05-07T04:01:56;15.90;99.90
3921;DHT22;1975;49.356;6.816;2023-05-07T04:04:21;15.80;99.90
3921;DHT22;1975;49.356;6.816;2023-05-07T04:06:47;15.80;99.90
3921;DHT22;1975;49.356;6.816;2023-05-07T04:09:12;15.80;99.90
3921;DHT22;1975;49.356;6.816;2023-05-07T04:11:38;15.80;99.90
3921;DHT22;1975;49.356;6.816;2023-05-07T04:14:05;15.80;99.90
3921;DHT22;1975;49.356;6.816;2023-05-07T04:16:31;15.80;99.90
3921;DHT22;1975;49.356;6.816;2023-05-07T04:18:56;15.70;99.90
3921;DHT22;1975;49.356;6.816;2023-05-07T04:21:21;15.70;99.90
3921;DHT22;1975;49.356;6.816;2023-05-07T04:23:47;15.70;99.90
3921;DHT22;1975;49.356;6.816;2023-05-07T04:26:13;15.70;99.90
3921;DHT22;1975;49.356;6.816;2023-05-07T04:28:39;15.70;99.90
3921;DHT22;1975;49.356;6.816;2023-05-07T04:31:04;15.70;99.90
3921;DHT22;1975;49.356;6.816;2023-05-07T04:33:30;15.70;99.90
3921;DHT22;1975;49.356;6.816;2023-05-07T04:35:56;15.70;99.90
3921;DHT22;1975;49.356;6.816;2023-05-07T04:38:21;15.60;99.90
3921;DHT22;1975;49.356;6.816;2023-05-07T04:40:48;15.60;99.90
3921;DHT22;1975;49.356;6.816;2023-05-07T04:43:14;15.60;99.90
3921;DHT22;1975;49.356;6.816;2023-05-07T04:45:39;15.70;99.90
3921;DHT22;1975;49.356;6.816;2023-05-07T04:48:06;15.60;99.90
3921;DHT22;1975;49.356;6.816;2023-05-07T04:50:32;15.60;99.90
3921;DHT22;1975;49.356;6.816;2023-05-07T04:52:58;15.60;99.90
3921;DHT22;1975;49.356;6.816;2023-05-07T04:55:23;15.60;99.90
3921;DHT22;1975;49.356;6.816;2023-05-07T04:57:49;15.60;99.90
3921;DHT22;1975;49.356;6.816;2023-05-07T05:00:15;15.60;99.90
3921;DHT22;1975;49.356;6.816;2023-05-07T05:02:41;15.60;99.90
3921;DHT22;1975;49.356;6.816;2023-05-07T05:05:07;15.60;99.90
3921;DHT22;1975;49.356;6.816;2023-05-07T05:07:33;15.60;99.90
3921;DHT22;1975;49.356;6.816;2023-05-07T05:09:58;15.60;99.90
3921;DHT22;1975;49.356;6.816;2023-05-07T05:12:24;15.60;99.90
3921;DHT22;1975;49.356;6.816;2023-05-07T05:14:49;15.50;99.90
3921;DHT22;1975;49.356;6.816;2023-05-07T05:17:15;15.50;99.90
3921;DHT22;1975;49.356;6.816;2023-05-07T05:19:40;15.50;99.90
3921;DHT22;1975;49.356;6.816;2023-05-07T05:22:06;15.50;99.90
3921;DHT22;1975;49.356;6.816;2023-05-07T05:24:31;15.50;99.90
3921;DHT22;1975;49.356;6.816;2023-05-07T05:26:57;15.50;99.90
3921;DHT22;1975;49.356;6.816;2023-05-07T05:29:25;15.50;99.90
3921;DHT22;1975;49.356;6.816;2023-05-07T05:31:50;15.50;99.90
3921;DHT22;1975;49.356;6.816;2023-05-07T05:34:16;15.50;99.90
3921;DHT22;1975;49.356;6.816;2023-05-07T05:36:42;15.50;99.90
3921;DHT22;1975;49.356;6.816;2023-05-07T05:39:08;15.50;99.90
3921;DHT22;1975;49.356;6.816;2023-05-07T05:41:34;15.50;99.90
3921;DHT22;1975;49.356;6.816;2023-05-07T05:43:59;15.50;99.90
3921;DHT22;1975;49.356;6.816;2023-05-07T05:46:25;15.50;99.90
3921;DHT22;1975;49.356;6.816;2023-05-07T05:48:50;15.50;99.90
3921;DHT22;1975;49.356;6.816;2023-05-07T05:51:15;15.50;99.90
3921;DHT22;1975;49.356;6.816;2023-05-07T05:53:41;15.50;99.90
3921;DHT22;1975;49.356;6.816;2023-05-07T05:56:07;15.50;99.90
3921;DHT22;1975;49.356;6.816;2023-05-07T05:58:32;15.50;99.90
3921;DHT22;1975;49.356;6.816;2023-05-07T06:00:58;15.50;99.90
3921;DHT22;1975;49.356;6.816;2023-05-07T06:03:23;15.50;99.90
3921;DHT22;1975;49.356;6.816;2023-05-07T06:05:49;15.50;99.90
3921;DHT22;1975;49.356;6.816;2023-05-07T06:08:14;15.50;99.90
3921;DHT22;1975;49.356;6.816;2023-05-07T06:10:40;15.50;99.90
3921;DHT22;1975;49.356;6.816;2023-05-07T06:13:06;15.50;99.90
3921;DHT22;1975;49.356;6.816;2023-05-07T06:15:31;15.50;99.90
3921;DHT22;1975;49.356;6.816;2023-05-07T06:17:57;15.50;99.90
3921;DHT22;1975;49.356;6.816;2023-05-07T06:20:22;15.50;99.90
3921;DHT22;1975;49.356;6.816;2023-05-07T06:22:48;15.50;99.90
3921;DHT22;1975;49.356;6.816;2023-05-07T06:25:14;15.50;99.90
3921;DHT22;1975;49.356;6.816;2023-05-07T06:27:39;15.50;99.90
3921;DHT22;1975;49.356;6.816;2023-05-07T06:30:05;15.50;99.90
3921;DHT22;1975;49.356;6.816;2023-05-07T06:32:31;15.50;99.90
3921;DHT22;1975;49.356;6.816;2023-05-07T06:34:57;15.50;99.90
3921;DHT22;1975;49.356;6.816;2023-05-07T06:37:22;15.50;99.90
3921;DHT22;1975;49.356;6.816;2023-05-07T06:39:47;15.50;99.90
3921;DHT22;1975;49.356;6.816;2023-05-07T06:42:13;15.50;99.90
3921;DHT22;1975;49.356;6.816;2023-05-07T06:44:38;15.50;99.90
3921;DHT22;1975;49.356;6.816;2023-05-07T06:47:04;15.50;99.90
3921;DHT22;1975;49.356;6.816;2023-05-07T06:49:30;15.50;99.90
3921;DHT22;1975;49.356;6.816;2023-05-07T06:51:56;15.50;99.90
3921;DHT22;1975;49.356;6.816;2023-05-07T06:54:22;15.50;99.90
3921;DHT22;1975;49.356;6.816;2023-05-07T06:56:48;15.50;99.90
3921;DHT22;1975;49.356;6.816;2023-05-07T06:59:13;15.50;99.90
3921;DHT22;1975;49.356;6.816;2023-05-07T07:01:38;15.50;99.90
3921;DHT22;1975;49.356;6.816;2023-05-07T07:04:04;15.50;99.90
3921;DHT22;1975;49.356;6.816;2023-05-07T07:06:29;15.50;99.90
3921;DHT22;1975;49.356;6.816;2023-05-07T07:08:57;15.50;99.90
3921;DHT22;1975;49.356;6.816;2023-05-07T07:11:22;15.50;99.90
3921;DHT22;1975;49.356;6.816;2023-05-07T07:13:48;15.50;99.90
3921;DHT22;1975;49.356;6.816;2023-05-07T07:16:13;15.50;99.90
3921;DHT22;1975;49.356;6.816;2023-05-07T07:18:39;15.50;99.90
3921;DHT22;1975;49.356;6.816;2023-05-07T07:21:05;15.50;99.90
3921;DHT22;1975;49.356;6.816;2023-05-07T07:23:30;15.50;99.90
3921;DHT22;1975;49.356;6.816;2023-05-07T07:25:56;15.50;99.90
3921;DHT22;1975;49.356;6.816;2023-05-07T07:28:21;15.50;99.90
3921;DHT22;1975;49.356;6.816;2023-05-07T07:30:47;15.50;99.90
3921;DHT22;1975;49.356;6.816;2023-05-07T07:33:12;15.60;99.90
3921;DHT22;1975;49.356;6.816;2023-05-07T07:35:38;15.60;99.90
3921;DHT22;1975;49.356;6.816;2023-05-07T07:38:03;15.60;99.90
3921;DHT22;1975;49.356;6.816;2023-05-07T07:40:29;15.60;99.90
3921;DHT22;1975;49.356;6.816;2023-05-07T07:42:56;15.60;99.90
3921;DHT22;1975;49.356;6.816;2023-05-07T07:45:25;15.60;99.90
3921;DHT22;1975;49.356;6.816;2023-05-07T07:47:50;15.60;99.90
3921;DHT22;1975;49.356;6.816;2023-05-07T07:50:16;15.60;99.90
3921;DHT22;1975;49.356;6.816;2023-05-07T07:52:41;15.70;99.90
3921;DHT22;1975;49.356;6.816;2023-05-07T07:55:07;15.60;99.90
3921;DHT22;1975;49.356;6.816;2023-05-07T07:57:32;15.70;99.90
3921;DHT22;1975;49.356;6.816;2023-05-07T07:59:58;15.70;99.90
3921;DHT22;1975;49.356;6.816;2023-05-07T08:02:23;15.70;99.90
3921;DHT22;1975;49.356;6.816;2023-05-07T08:04:49;15.70;99.90
3921;DHT22;1975;49.356;6.816;2023-05-07T08:07:14;15.70;99.90
3921;DHT22;1975;49.356;6.816;2023-05-07T08:09:40;15.70;99.90
3921;DHT22;1975;49.356;6.816;2023-05-07T08:12:06;15.70;99.90
3921;DHT22;1975;49.356;6.816;2023-05-07T08:14:32;15.70;99.90
3921;DHT22;1975;49.356;6.816;2023-05-07T08:16:57;15.80;99.90
3921;DHT22;1975;49.356;6.816;2023-05-07T08:19:23;15.80;99.90
3921;DHT22;1975;49.356;6.816;2023-05-07T08:21:48;15.80;99.90
3921;DHT22;1975;49.356;6.816;2023-05-07T08:24:14;15.80;99.90
3921;DHT22;1975;49.356;6.816;2023-05-07T08:26:40;15.80;99.90
3921;DHT22;1975;49.356;6.816;2023-05-07T08:29:06;15.80;99.90
3921;DHT22;1975;49.356;6.816;2023-05-07T08:31:31;15.80;99.90
3921;DHT22;1975;49.356;6.816;2023-05-07T08:33:57;15.80;99.90
3921;DHT22;1975;49.356;6.816;2023-05-07T08:36:23;15.80;99.90
3921;DHT22;1975;49.356;6.816;2023-05-07T08:38:48;15.90;99.90
3921;DHT22;1975;49.356;6.816;2023-05-07T08:41:15;15.90;99.90
3921;DHT22;1975;49.356;6.816;2023-05-07T08:43:40;15.90;99.90
3921;DHT22;1975;49.356;6.816;2023-05-07T08:48:35;15.90;99.90
3921;DHT22;1975;49.356;6.816;2023-05-07T08:51:01;15.90;99.90
3921;DHT22;1975;49.356;6.816;2023-05-07T08:53:26;15.90;99.90
3921;DHT22;1975;49.356;6.816;2023-05-07T08:55:52;15.90;99.90
3921;DHT22;1975;49.356;6.816;2023-05-07T08:58:18;16.00;99.90
3921;DHT22;1975;49.356;6.816;2023-05-07T09:00:43;16.00;99.90
3921;DHT22;1975;49.356;6.816;2023-05-07T09:03:09;16.00;99.90
3921;DHT22;1975;49.356;6.816;2023-05-07T09:05:37;16.00;99.90
3921;DHT22;1975;49.356;6.816;2023-05-07T09:08:03;16.00;99.90
3921;DHT22;1975;49.356;6.816;2023-05-07T09:10:29;16.00;99.90
3921;DHT22;1975;49.356;6.816;2023-05-07T09:12:54;16.10;99.90
3921;DHT22;1975;49.356;6.816;2023-05-07T09:15:20;16.10;99.90
3921;DHT22;1975;49.356;6.816;2023-05-07T09:17:45;16.10;99.90
3921;DHT22;1975;49.356;6.816;2023-05-07T09:20:11;16.10;99.90
3921;DHT22;1975;49.356;6.816;2023-05-07T09:22:37;16.20;99.90
3921;DHT22;1975;49.356;6.816;2023-05-07T09:25:02;16.20;99.90
3921;DHT22;1975;49.356;6.816;2023-05-07T09:27:28;16.20;99.90
3921;DHT22;1975;49.356;6.816;2023-05-07T09:29:54;16.20;99.90
3921;DHT22;1975;49.356;6.816;2023-05-07T09:32:19;16.20;99.90
3921;DHT22;1975;49.356;6.816;2023-05-07T09:34:45;16.20;99.90
3921;DHT22;1975;49.356;6.816;2023-05-07T09:37:12;16.30;99.90
3921;DHT22;1975;49.356;6.816;2023-05-07T09:39:41;16.30;99.90
3921;DHT22;1975;49.356;6.816;2023-05-07T09:42:07;16.30;99.90
3921;DHT22;1975;49.356;6.816;2023-05-07T09:44:33;16.30;99.90
3921;DHT22;1975;49.356;6.816;2023-05-07T09:46:59;16.30;99.90
3921;DHT22;1975;49.356;6.816;2023-05-07T09:49:25;16.30;99.90
3921;DHT22;1975;49.356;6.816;2023-05-07T09:51:54;16.30;99.90
3921;DHT22;1975;49.356;6.816;2023-05-07T09:54:20;16.40;99.90
3921;DHT22;1975;49.356;6.816;2023-05-07T09:56:48;16.40;99.90
3921;DHT22;1975;49.356;6.816;2023-05-07T09:59:14;16.40;99.90
3921;DHT22;1975;49.356;6.816;2023-05-07T10:01:41;16.40;99.90
3921;DHT22;1975;49.356;6.816;2023-05-07T10:04:07;16.40;99.90
3921;DHT22;1975;49.356;6.816;2023-05-07T10:06:36;16.50;99.90
3921;DHT22;1975;49.356;6.816;2023-05-07T10:09:05;16.50;99.90
3921;DHT22;1975;49.356;6.816;2023-05-07T10:11:32;16.60;99.90
3921;DHT22;1975;49.356;6.816;2023-05-07T10:13:58;16.80;99.90
3921;DHT22;1975;49.356;6.816;2023-05-07T10:16:23;17.00;99.90
3921;DHT22;1975;49.356;6.816;2023-05-07T10:18:50;17.10;99.90
3921;DHT22;1975;49.356;6.816;2023-05-07T10:21:19;17.10;99.90
3921;DHT22;1975;49.356;6.816;2023-05-07T10:23:45;17.00;99.90
3921;DHT22;1975;49.356;6.816;2023-05-07T10:26:14;17.00;99.90
3921;DHT22;1975;49.356;6.816;2023-05-07T10:28:41;17.00;99.90
3921;DHT22;1975;49.356;6.816;2023-05-07T10:31:09;17.10;99.90
3921;DHT22;1975;49.356;6.816;2023-05-07T10:33:38;17.10;99.90
3921;DHT22;1975;49.356;6.816;2023-05-07T10:36:04;17.10;99.90
3921;DHT22;1975;49.356;6.816;2023-05-07T10:38:30;17.10;99.90
3921;DHT22;1975;49.356;6.816;2023-05-07T10:40:56;17.10;99.90
3921;DHT22;1975;49.356;6.816;2023-05-07T10:43:21;17.10;99.90
3921;DHT22;1975;49.356;6.816;2023-05-07T10:48:31;17.10;99.90
3921;DHT22;1975;49.356;6.816;2023-05-07T10:53:41;17.10;99.90
3921;DHT22;1975;49.356;6.816;2023-05-07T10:58:44;17.20;99.90
3921;DHT22;1975;49.356;6.816;2023-05-07T11:01:10;17.20;99.90
3921;DHT22;1975;49.356;6.816;2023-05-07T11:04:12;17.20;99.90
3921;DHT22;1975;49.356;6.816;2023-05-07T11:06:23;17.20;99.90
3921;DHT22;1975;49.356;6.816;2023-05-07T11:11:16;17.30;99.90
3921;DHT22;1975;49.356;6.816;2023-05-07T11:13:43;17.30;99.90
3921;DHT22;1975;49.356;6.816;2023-05-07T11:16:19;17.30;99.90
3921;DHT22;1975;49.356;6.816;2023-05-07T11:18:45;17.30;99.90
3921;DHT22;1975;49.356;6.816;2023-05-07T11:21:11;17.40;99.90
3921;DHT22;1975;49.356;6.816;2023-05-07T11:26:07;17.40;99.90
3921;DHT22;1975;49.356;6.816;2023-05-07T11:28:40;17.40;99.90
3921;DHT22;1975;49.356;6.816;2023-05-07T11:31:05;17.40;99.90
3921;DHT22;1975;49.356;6.816;2023-05-07T11:33:31;17.40;99.90
3921;DHT22;1975;49.356;6.816;2023-05-07T11:35:57;17.50;99.90
3921;DHT22;1975;49.356;6.816;2023-05-07T11:38:24;17.50;99.90
3921;DHT22;1975;49.356;6.816;2023-05-07T11:40:50;17.50;99.90
3921;DHT22;1975;49.356;6.816;2023-05-07T11:43:16;17.50;99.90
3921;DHT22;1975;49.356;6.816;2023-05-07T11:45:42;17.50;99.90
3921;DHT22;1975;49.356;6.816;2023-05-07T11:48:08;17.60;99.90
3921;DHT22;1975;49.356;6.816;2023-05-07T11:50:33;17.60;99.90
3921;DHT22;1975;49.356;6.816;2023-05-07T11:52:59;17.60;99.90
3921;DHT22;1975;49.356;6.816;2023-05-07T11:55:24;17.60;99.90
3921;DHT22;1975;49.356;6.816;2023-05-07T11:57:51;17.60;99.90
3921;DHT22;1975;49.356;6.816;2023-05-07T12:00:17;17.60;99.90
3921;DHT22;1975;49.356;6.816;2023-05-07T12:02:43;17.70;99.90
3921;DHT22;1975;49.356;6.816;2023-05-07T12:05:08;17.70;99.90
3921;DHT22;1975;49.356;6.816;2023-05-07T12:07:34;17.70;99.90
3921;DHT22;1975;49.356;6.816;2023-05-07T12:10:03;17.70;99.90
3921;DHT22;1975;49.356;6.816;2023-05-07T12:12:29;17.70;99.90
3921;DHT22;1975;49.356;6.816;2023-05-07T12:14:54;17.70;99.90
3921;DHT22;1975;49.356;6.816;2023-05-07T12:17:20;17.70;99.90
3921;DHT22;1975;49.356;6.816;2023-05-07T12:19:46;17.80;99.90
3921;DHT22;1975;49.356;6.816;2023-05-07T12:22:12;17.80;99.90
3921;DHT22;1975;49.356;6.816;2023-05-07T12:27:09;17.80;99.90
3921;DHT22;1975;49.356;6.816;2023-05-07T12:29:34;17.80;99.90
3921;DHT22;1975;49.356;6.816;2023-05-07T12:32:00;17.80;99.90
3921;DHT22;1975;49.356;6.816;2023-05-07T12:34:25;17.80;99.90
3921;DHT22;1975;49.356;6.816;2023-05-07T12:36:51;17.80;99.90
3921;DHT22;1975;49.356;6.816;2023-05-07T12:39:16;17.80;99.90
3921;DHT22;1975;49.356;6.816;2023-05-07T12:41:55;17.80;99.90
3921;DHT22;1975;49.356;6.816;2023-05-07T12:44:24;17.80;99.90
3921;DHT22;1975;49.356;6.816;2023-05-07T12:46:50;17.80;99.90
3921;DHT22;1975;49.356;6.816;2023-05-07T12:49:16;17.80;99.90
3921;DHT22;1975;49.356;6.816;2023-05-07T12:51:43;17.80;99.90
3921;DHT22;1975;49.356;6.816;2023-05-07T12:54:09;17.80;99.90
3921;DHT22;1975;49.356;6.816;2023-05-07T12:56:37;17.80;99.90
3921;DHT22;1975;49.356;6.816;2023-05-07T12:59:03;17.80;99.90
3921;DHT22;1975;49.356;6.816;2023-05-07T13:01:29;17.80;99.90
3921;DHT22;1975;49.356;6.816;2023-05-07T13:04:02;17.80;99.90
3921;DHT22;1975;49.356;6.816;2023-05-07T13:06:29;17.80;99.90
3921;DHT22;1975;49.356;6.816;2023-05-07T13:08:55;17.80;99.90
3921;DHT22;1975;49.356;6.816;2023-05-07T13:11:21;17.80;99.90
3921;DHT22;1975;49.356;6.816;2023-05-07T13:13:46;17.80;99.90
3921;DHT22;1975;49.356;6.816;2023-05-07T13:16:12;17.80;99.90
3921;DHT22;1975;49.356;6.816;2023-05-07T13:18:38;17.80;99.90
3921;DHT22;1975;49.356;6.816;2023-05-07T13:21:03;17.90;99.90
3921;DHT22;1975;49.356;6.816;2023-05-07T13:23:29;17.80;99.90
3921;DHT22;1975;49.356;6.816;2023-05-07T13:25:55;17.90;99.90
3921;DHT22;1975;49.356;6.816;2023-05-07T13:28:21;17.80;99.90
3921;DHT22;1975;49.356;6.816;2023-05-07T13:30:47;17.80;99.90
3921;DHT22;1975;49.356;6.816;2023-05-07T13:33:12;17.90;99.90
3921;DHT22;1975;49.356;6.816;2023-05-07T13:35:38;17.90;99.90
3921;DHT22;1975;49.356;6.816;2023-05-07T13:38:04;17.90;99.90
3921;DHT22;1975;49.356;6.816;2023-05-07T13:40:30;17.80;99.90
3921;DHT22;1975;49.356;6.816;2023-05-07T13:42:56;17.90;99.90
3921;DHT22;1975;49.356;6.816;2023-05-07T13:45:24;17.90;99.90
3921;DHT22;1975;49.356;6.816;2023-05-07T13:47:50;17.90;99.90
3921;DHT22;1975;49.356;6.816;2023-05-07T13:50:16;17.90;99.90
3921;DHT22;1975;49.356;6.816;2023-05-07T13:52:42;17.90;99.90
3921;DHT22;1975;49.356;6.816;2023-05-07T13:55:09;17.90;99.90
3921;DHT22;1975;49.356;6.816;2023-05-07T13:57:35;17.80;99.90
3921;DHT22;1975;49.356;6.816;2023-05-07T14:00:01;17.90;99.90
3921;DHT22;1975;49.356;6.816;2023-05-07T14:02:26;17.80;99.90
3921;DHT22;1975;49.356;6.816;2023-05-07T14:04:51;17.90;99.90
3921;DHT22;1975;49.356;6.816;2023-05-07T14:07:17;17.90;99.90
3921;DHT22;1975;49.356;6.816;2023-05-07T14:09:42;17.90;99.90
3921;DHT22;1975;49.356;6.816;2023-05-07T14:12:08;17.90;99.90
3921;DHT22;1975;49.356;6.816;2023-05-07T14:14:33;17.90;99.90
3921;DHT22;1975;49.356;6.816;2023-05-07T14:16:59;17.90;99.90
3921;DHT22;1975;49.356;6.816;2023-05-07T14:19:24;17.90;99.90
3921;DHT22;1975;49.356;6.816;2023-05-07T14:21:50;17.90;99.90
3921;DHT22;1975;49.356;6.816;2023-05-07T14:24:15;17.90;99.90
3921;DHT22;1975;49.356;6.816;2023-05-07T14:26:41;17.90;99.90
3921;DHT22;1975;49.356;6.816;2023-05-07T14:29:06;17.90;99.90
3921;DHT22;1975;49.356;6.816;2023-05-07T14:31:31;17.90;99.90
3921;DHT22;1975;49.356;6.816;2023-05-07T14:33:58;17.90;99.90
3921;DHT22;1975;49.356;6.816;2023-05-07T14:36:24;17.90;99.90
3921;DHT22;1975;49.356;6.816;2023-05-07T14:38:51;17.90;99.90
3921;DHT22;1975;49.356;6.816;2023-05-07T14:41:17;17.90;99.90
3921;DHT22;1975;49.356;6.816;2023-05-07T14:43:43;17.90;99.90
3921;DHT22;1975;49.356;6.816;2023-05-07T14:46:18;17.90;99.90
3921;DHT22;1975;49.356;6.816;2023-05-07T14:48:44;17.90;99.90
3921;DHT22;1975;49.356;6.816;2023-05-07T14:51:10;17.90;99.90
3921;DHT22;1975;49.356;6.816;2023-05-07T14:53:36;18.00;99.90
3921;DHT22;1975;49.356;6.816;2023-05-07T14:56:01;18.00;99.90
3921;DHT22;1975;49.356;6.816;2023-05-07T14:58:27;18.00;99.90
3921;DHT22;1975;49.356;6.816;2023-05-07T15:00:52;18.00;99.90
3921;DHT22;1975;49.356;6.816;2023-05-07T15:03:18;18.00;99.90
3921;DHT22;1975;49.356;6.816;2023-05-07T15:05:43;18.00;99.90
3921;DHT22;1975;49.356;6.816;2023-05-07T15:08:09;18.00;99.90
3921;DHT22;1975;49.356;6.816;2023-05-07T15:10:35;18.00;99.90
3921;DHT22;1975;49.356;6.816;2023-05-07T15:13:05;18.00;99.90
3921;DHT22;1975;49.356;6.816;2023-05-07T15:15:30;18.00;99.90
3921;DHT22;1975;49.356;6.816;2023-05-07T15:17:56;18.00;99.90
3921;DHT22;1975;49.356;6.816;2023-05-07T15:20:21;18.00;99.90
3921;DHT22;1975;49.356;6.816;2023-05-07T15:22:47;18.10;99.90
3921;DHT22;1975;49.356;6.816;2023-05-07T15:25:13;18.10;99.90
3921;DHT22;1975;49.356;6.816;2023-05-07T15:27:38;18.10;99.90
3921;DHT22;1975;49.356;6.816;2023-05-07T15:30:04;18.00;99.90
3921;DHT22;1975;49.356;6.816;2023-05-07T15:32:30;18.10;99.90
3921;DHT22;1975;49.356;6.816;2023-05-07T15:34:55;18.10;99.90
3921;DHT22;1975;49.356;6.816;2023-05-07T15:37:21;18.10;99.90
3921;DHT22;1975;49.356;6.816;2023-05-07T15:39:46;18.10;99.90
3921;DHT22;1975;49.356;6.816;2023-05-07T15:42:12;18.10;99.90
3921;DHT22;1975;49.356;6.816;2023-05-07T15:44:37;18.10;99.90
3921;DHT22;1975;49.356;6.816;2023-05-07T15:47:03;18.10;99.90
3921;DHT22;1975;49.356;6.816;2023-05-07T15:49:28;18.10;99.90
3921;DHT22;1975;49.356;6.816;2023-05-07T15:51:54;18.10;99.90
3921;DHT22;1975;49.356;6.816;2023-05-07T15:54:19;18.10;99.90
3921;DHT22;1975;49.356;6.816;2023-05-07T15:56:45;18.10;99.90
3921;DHT22;1975;49.356;6.816;2023-05-07T15:59:11;18.10;99.90
3921;DHT22;1975;49.356;6.816;2023-05-07T16:01:37;18.10;99.90
3921;DHT22;1975;49.356;6.816;2023-05-07T16:04:03;18.20;99.90
3921;DHT22;1975;49.356;6.816;2023-05-07T16:06:28;18.20;99.90
3921;DHT22;1975;49.356;6.816;2023-05-07T16:08:54;18.20;99.90
3921;DHT22;1975;49.356;6.816;2023-05-07T16:11:19;18.20;99.90